Bovina, Colorado
Current Conditions -  °F | °C
As of 3:55 AM on Tuesday 21 Oct 2014 (Local Time) from KLIC Reporting Station
Clear Clear  
Wind Chill: 38°   Ceiling: Unl
Heat Index: 42°   Visibility: 9mi
Dew Point: 41°   Wind: 6mph
Humidity: 96%   Direction: 110°ESE
Pressure: 30.09"   Gusts: NA
Location:  39.4374°N, 103.393°W
Report Text: KLIC 210955Z AUTO 11005KT 9SM CLR 06/05 A3009 RMK AO2 SLP143 T00560050
Loading
Personal Weather Stations






























Interactive Weather Map
Tropical Storm Tracking
New forecast layout! Learn more

10-Day Weather Forecast

Advertisements
Track Severe Weather on mobile